sensor_id;sensor_type;location;lat;lon;timestamp;P1;durP1;ratioP1;P2;durP2;ratioP2
21428;SDS011;10875;50.444;30.540;2022-08-11T00:02:26;7.32;;;5.30;;
21428;SDS011;10875;50.444;30.540;2022-08-11T00:04:55;7.03;;;5.35;;
21428;SDS011;10875;50.444;30.540;2022-08-11T00:09:48;6.45;;;4.80;;
21428;SDS011;10875;50.444;30.540;2022-08-11T00:12:14;7.37;;;5.17;;
21428;SDS011;10875;50.444;30.540;2022-08-11T00:14:42;7.10;;;4.95;;
21428;SDS011;10875;50.444;30.540;2022-08-11T00:17:09;7.60;;;5.22;;
21428;SDS011;10875;50.444;30.540;2022-08-11T00:19:38;8.68;;;5.47;;
21428;SDS011;10875;50.444;30.540;2022-08-11T00:22:07;7.60;;;5.65;;
21428;SDS011;10875;50.444;30.540;2022-08-11T00:24:35;8.63;;;5.68;;
21428;SDS011;10875;50.444;30.540;2022-08-11T00:27:03;7.45;;;5.68;;
21428;SDS011;10875;50.444;30.540;2022-08-11T00:29:29;7.40;;;5.72;;
21428;SDS011;10875;50.444;30.540;2022-08-11T00:31:57;7.40;;;5.60;;
21428;SDS011;10875;50.444;30.540;2022-08-11T00:34:26;7.30;;;5.30;;
21428;SDS011;10875;50.444;30.540;2022-08-11T00:36:57;7.55;;;5.50;;
21428;SDS011;10875;50.444;30.540;2022-08-11T00:39:26;8.45;;;6.10;;
21428;SDS011;10875;50.444;30.540;2022-08-11T00:44:37;7.53;;;5.70;;
21428;SDS011;10875;50.444;30.540;2022-08-11T00:47:34;6.85;;;5.43;;
21428;SDS011;10875;50.444;30.540;2022-08-11T00:53:02;8.65;;;5.82;;
21428;SDS011;10875;50.444;30.540;2022-08-11T01:25:57;7.70;;;5.93;;
21428;SDS011;10875;50.444;30.540;2022-08-11T01:43:00;7.78;;;5.45;;
21428;SDS011;10875;50.444;30.540;2022-08-11T01:46:11;7.20;;;5.28;;
21428;SDS011;10875;50.444;30.540;2022-08-11T02:00:02;6.95;;;5.28;;
21428;SDS011;10875;50.444;30.540;2022-08-11T02:02:38;7.57;;;5.82;;
21428;SDS011;10875;50.444;30.540;2022-08-11T02:05:28;7.00;;;4.90;;
21428;SDS011;10875;50.444;30.540;2022-08-11T02:13:59;8.23;;;5.07;;
21428;SDS011;10875;50.444;30.540;2022-08-11T02:22:18;8.27;;;5.22;;
21428;SDS011;10875;50.444;30.540;2022-08-11T02:36:58;7.20;;;5.63;;
21428;SDS011;10875;50.444;30.540;2022-08-11T02:40:07;6.30;;;4.88;;
21428;SDS011;10875;50.444;30.540;2022-08-11T02:43:06;7.93;;;6.07;;
21428;SDS011;10875;50.444;30.540;2022-08-11T03:04:58;7.65;;;5.65;;
21428;SDS011;10875;50.444;30.540;2022-08-11T03:12:44;8.13;;;5.55;;
21428;SDS011;10875;50.444;30.540;2022-08-11T03:15:31;8.23;;;5.88;;
21428;SDS011;10875;50.444;30.540;2022-08-11T03:21:46;7.80;;;6.03;;
21428;SDS011;10875;50.444;30.540;2022-08-11T03:34:53;7.57;;;5.72;;
21428;SDS011;10875;50.444;30.540;2022-08-11T03:46:03;8.80;;;6.25;;
21428;SDS011;10875;50.444;30.540;2022-08-11T03:48:52;9.63;;;6.13;;
21428;SDS011;10875;50.444;30.540;2022-08-11T04:00:03;7.78;;;5.65;;
21428;SDS011;10875;50.444;30.540;2022-08-11T04:05:48;8.00;;;6.22;;
21428;SDS011;10875;50.444;30.540;2022-08-11T04:14:46;8.15;;;6.05;;
21428;SDS011;10875;50.444;30.540;2022-08-11T04:29:15;7.88;;;5.65;;
21428;SDS011;10875;50.444;30.540;2022-08-11T04:32:00;8.93;;;5.68;;
21428;SDS011;10875;50.444;30.540;2022-08-11T04:37:31;8.07;;;5.80;;
21428;SDS011;10875;50.444;30.540;2022-08-11T04:45:54;10.10;;;7.00;;
21428;SDS011;10875;50.444;30.540;2022-08-11T04:54:52;8.88;;;6.28;;
21428;SDS011;10875;50.444;30.540;2022-08-11T05:00:55;11.98;;;8.23;;
21428;SDS011;10875;50.444;30.540;2022-08-11T05:04:12;13.05;;;8.20;;
21428;SDS011;10875;50.444;30.540;2022-08-11T05:13:07;10.60;;;7.88;;
21428;SDS011;10875;50.444;30.540;2022-08-11T05:18:45;14.05;;;7.13;;
21428;SDS011;10875;50.444;30.540;2022-08-11T05:21:32;11.63;;;8.05;;
21428;SDS011;10875;50.444;30.540;2022-08-11T05:24:38;13.40;;;7.57;;
21428;SDS011;10875;50.444;30.540;2022-08-11T05:30:37;12.83;;;8.50;;
21428;SDS011;10875;50.444;30.540;2022-08-11T05:33:35;12.52;;;8.23;;
21428;SDS011;10875;50.444;30.540;2022-08-11T05:39:01;11.18;;;7.60;;
21428;SDS011;10875;50.444;30.540;2022-08-11T05:41:48;8.90;;;7.22;;
21428;SDS011;10875;50.444;30.540;2022-08-11T05:44:33;10.20;;;7.80;;
21428;SDS011;10875;50.444;30.540;2022-08-11T05:47:21;13.77;;;7.47;;
21428;SDS011;10875;50.444;30.540;2022-08-11T05:50:08;10.13;;;7.57;;
21428;SDS011;10875;50.444;30.540;2022-08-11T05:52:54;10.17;;;7.50;;
21428;SDS011;10875;50.444;30.540;2022-08-11T05:55:40;10.73;;;7.50;;
21428;SDS011;10875;50.444;30.540;2022-08-11T05:58:25;11.45;;;7.65;;
21428;SDS011;10875;50.444;30.540;2022-08-11T06:01:22;9.85;;;7.30;;
21428;SDS011;10875;50.444;30.540;2022-08-11T06:03:55;12.18;;;8.15;;
21428;SDS011;10875;50.444;30.540;2022-08-11T06:07:00;10.38;;;7.95;;
21428;SDS011;10875;50.444;30.540;2022-08-11T06:11:57;10.80;;;7.68;;
21428;SDS011;10875;50.444;30.540;2022-08-11T06:14:26;10.85;;;8.38;;
21428;SDS011;10875;50.444;30.540;2022-08-11T06:16:54;12.95;;;8.02;;
21428;SDS011;10875;50.444;30.540;2022-08-11T06:19:28;10.02;;;7.50;;
21428;SDS011;10875;50.444;30.540;2022-08-11T06:21:57;11.10;;;8.50;;
21428;SDS011;10875;50.444;30.540;2022-08-11T06:24:24;11.25;;;7.50;;
21428;SDS011;10875;50.444;30.540;2022-08-11T06:26:53;8.80;;;6.70;;
21428;SDS011;10875;50.444;30.540;2022-08-11T06:29:20;11.88;;;8.15;;
21428;SDS011;10875;50.444;30.540;2022-08-11T06:31:55;11.48;;;7.00;;
21428;SDS011;10875;50.444;30.540;2022-08-11T06:35:06;9.82;;;6.43;;
21428;SDS011;10875;50.444;30.540;2022-08-11T06:40:07;11.52;;;7.07;;
21428;SDS011;10875;50.444;30.540;2022-08-11T06:42:53;9.90;;;6.47;;
21428;SDS011;10875;50.444;30.540;2022-08-11T06:45:27;8.30;;;6.77;;
21428;SDS011;10875;50.444;30.540;2022-08-11T06:47:56;9.40;;;6.82;;
21428;SDS011;10875;50.444;30.540;2022-08-11T06:50:25;8.57;;;6.90;;
21428;SDS011;10875;50.444;30.540;2022-08-11T06:53:10;9.50;;;7.07;;
21428;SDS011;10875;50.444;30.540;2022-08-11T06:55:42;11.13;;;6.70;;
21428;SDS011;10875;50.444;30.540;2022-08-11T06:58:31;11.30;;;7.00;;
21428;SDS011;10875;50.444;30.540;2022-08-11T07:04:12;9.82;;;7.15;;
21428;SDS011;10875;50.444;30.540;2022-08-11T07:06:55;9.02;;;6.55;;
21428;SDS011;10875;50.444;30.540;2022-08-11T07:13:08;9.93;;;7.50;;
21428;SDS011;10875;50.444;30.540;2022-08-11T07:15:55;9.83;;;7.00;;
21428;SDS011;10875;50.444;30.540;2022-08-11T07:18:27;7.80;;;5.88;;
21428;SDS011;10875;50.444;30.540;2022-08-11T07:21:21;10.00;;;7.20;;
21428;SDS011;10875;50.444;30.540;2022-08-11T07:24:12;9.00;;;6.88;;
21428;SDS011;10875;50.444;30.540;2022-08-11T07:26:59;7.80;;;6.10;;
21428;SDS011;10875;50.444;30.540;2022-08-11T07:29:47;10.32;;;6.15;;
21428;SDS011;10875;50.444;30.540;2022-08-11T07:32:20;10.35;;;7.18;;
21428;SDS011;10875;50.444;30.540;2022-08-11T07:34:54;7.97;;;6.03;;
21428;SDS011;10875;50.444;30.540;2022-08-11T07:37:24;8.48;;;6.68;;
21428;SDS011;10875;50.444;30.540;2022-08-11T07:39:52;8.43;;;6.78;;
21428;SDS011;10875;50.444;30.540;2022-08-11T07:42:20;7.78;;;6.40;;
21428;SDS011;10875;50.444;30.540;2022-08-11T07:44:47;11.43;;;7.32;;
21428;SDS011;10875;50.444;30.540;2022-08-11T07:47:34;9.07;;;6.55;;
21428;SDS011;10875;50.444;30.540;2022-08-11T07:50:21;8.82;;;6.90;;
21428;SDS011;10875;50.444;30.540;2022-08-11T07:53:05;8.18;;;7.20;;
21428;SDS011;10875;50.444;30.540;2022-08-11T07:55:32;8.10;;;6.72;;
21428;SDS011;10875;50.444;30.540;2022-08-11T07:57:59;9.32;;;6.85;;
21428;SDS011;10875;50.444;30.540;2022-08-11T08:00:46;8.20;;;6.38;;
21428;SDS011;10875;50.444;30.540;2022-08-11T08:03:36;8.65;;;6.78;;
21428;SDS011;10875;50.444;30.540;2022-08-11T08:06:22;11.45;;;7.15;;
21428;SDS011;10875;50.444;30.540;2022-08-11T08:09:06;9.40;;;6.90;;
21428;SDS011;10875;50.444;30.540;2022-08-11T08:11:53;9.63;;;7.07;;
21428;SDS011;10875;50.444;30.540;2022-08-11T08:14:38;8.85;;;6.53;;
21428;SDS011;10875;50.444;30.540;2022-08-11T08:17:22;8.88;;;6.97;;
21428;SDS011;10875;50.444;30.540;2022-08-11T08:20:09;9.98;;;6.88;;
21428;SDS011;10875;50.444;30.540;2022-08-11T08:22:37;9.68;;;7.28;;
21428;SDS011;10875;50.444;30.540;2022-08-11T08:25:04;9.20;;;6.32;;
21428;SDS011;10875;50.444;30.540;2022-08-11T08:27:31;8.50;;;6.75;;
21428;SDS011;10875;50.444;30.540;2022-08-11T08:29:58;8.15;;;6.47;;
21428;SDS011;10875;50.444;30.540;2022-08-11T08:32:44;8.10;;;6.55;;
21428;SDS011;10875;50.444;30.540;2022-08-11T08:35:10;8.57;;;6.70;;
21428;SDS011;10875;50.444;30.540;2022-08-11T08:37:36;7.55;;;6.05;;
21428;SDS011;10875;50.444;30.540;2022-08-11T08:40:02;8.52;;;5.53;;
21428;SDS011;10875;50.444;30.540;2022-08-11T08:42:31;8.38;;;6.05;;
21428;SDS011;10875;50.444;30.540;2022-08-11T08:45:04;8.80;;;6.20;;
21428;SDS011;10875;50.444;30.540;2022-08-11T08:47:40;7.13;;;5.28;;
21428;SDS011;10875;50.444;30.540;2022-08-11T08:50:09;6.50;;;5.05;;
21428;SDS011;10875;50.444;30.540;2022-08-11T08:52:38;6.53;;;5.30;;
21428;SDS011;10875;50.444;30.540;2022-08-11T08:55:08;7.97;;;4.82;;
21428;SDS011;10875;50.444;30.540;2022-08-11T08:57:41;7.20;;;5.15;;
21428;SDS011;10875;50.444;30.540;2022-08-11T09:00:08;6.15;;;4.78;;
21428;SDS011;10875;50.444;30.540;2022-08-11T09:02:34;6.78;;;4.68;;
21428;SDS011;10875;50.444;30.540;2022-08-11T09:05:02;6.47;;;4.97;;
21428;SDS011;10875;50.444;30.540;2022-08-11T09:07:29;6.47;;;4.60;;
21428;SDS011;10875;50.444;30.540;2022-08-11T09:12:25;6.38;;;4.90;;
21428;SDS011;10875;50.444;30.540;2022-08-11T09:14:52;7.43;;;5.50;;
21428;SDS011;10875;50.444;30.540;2022-08-11T09:17:26;7.97;;;5.65;;
21428;SDS011;10875;50.444;30.540;2022-08-11T09:19:55;7.43;;;5.50;;
21428;SDS011;10875;50.444;30.540;2022-08-11T09:22:46;6.82;;;4.95;;
21428;SDS011;10875;50.444;30.540;2022-08-11T09:25:30;8.25;;;6.00;;
21428;SDS011;10875;50.444;30.540;2022-08-11T09:28:15;10.00;;;6.13;;
21428;SDS011;10875;50.444;30.540;2022-08-11T09:30:43;8.02;;;6.10;;
21428;SDS011;10875;50.444;30.540;2022-08-11T09:33:13;7.47;;;6.13;;
21428;SDS011;10875;50.444;30.540;2022-08-11T09:35:40;7.55;;;5.65;;
21428;SDS011;10875;50.444;30.540;2022-08-11T09:38:09;10.32;;;6.18;;
21428;SDS011;10875;50.444;30.540;2022-08-11T09:40:56;8.50;;;5.93;;
21428;SDS011;10875;50.444;30.540;2022-08-11T09:43:24;8.23;;;5.95;;
21428;SDS011;10875;50.444;30.540;2022-08-11T09:46:10;9.18;;;6.65;;
21428;SDS011;10875;50.444;30.540;2022-08-11T09:48:41;7.90;;;6.68;;
21428;SDS011;10875;50.444;30.540;2022-08-11T09:51:09;7.72;;;5.53;;
21428;SDS011;10875;50.444;30.540;2022-08-11T09:53:36;8.35;;;6.47;;
21428;SDS011;10875;50.444;30.540;2022-08-11T09:56:08;7.25;;;5.75;;
21428;SDS011;10875;50.444;30.540;2022-08-11T09:58:58;8.20;;;6.10;;
21428;SDS011;10875;50.444;30.540;2022-08-11T10:01:27;8.38;;;6.20;;
21428;SDS011;10875;50.444;30.540;2022-08-11T10:03:57;8.48;;;6.43;;
21428;SDS011;10875;50.444;30.540;2022-08-11T10:06:35;8.25;;;6.50;;
21428;SDS011;10875;50.444;30.540;2022-08-11T10:09:22;7.47;;;6.13;;
21428;SDS011;10875;50.444;30.540;2022-08-11T10:11:49;7.45;;;6.22;;
21428;SDS011;10875;50.444;30.540;2022-08-11T10:14:20;7.20;;;5.97;;
21428;SDS011;10875;50.444;30.540;2022-08-11T10:17:06;7.03;;;5.78;;
21428;SDS011;10875;50.444;30.540;2022-08-11T10:19:36;7.43;;;5.93;;
21428;SDS011;10875;50.444;30.540;2022-08-11T10:22:03;8.07;;;5.90;;
21428;SDS011;10875;50.444;30.540;2022-08-11T10:24:49;7.28;;;5.93;;
21428;SDS011;10875;50.444;30.540;2022-08-11T10:27:36;7.43;;;6.30;;
21428;SDS011;10875;50.444;30.540;2022-08-11T10:30:05;9.73;;;6.22;;
21428;SDS011;10875;50.444;30.540;2022-08-11T10:32:50;8.15;;;6.40;;
21428;SDS011;10875;50.444;30.540;2022-08-11T10:35:34;8.70;;;6.30;;
21428;SDS011;10875;50.444;30.540;2022-08-11T10:38:02;8.38;;;6.28;;
21428;SDS011;10875;50.444;30.540;2022-08-11T10:40:28;8.05;;;5.63;;
21428;SDS011;10875;50.444;30.540;2022-08-11T10:42:56;7.97;;;6.05;;
21428;SDS011;10875;50.444;30.540;2022-08-11T10:45:32;8.23;;;6.07;;
21428;SDS011;10875;50.444;30.540;2022-08-11T10:48:20;10.07;;;8.10;;
21428;SDS011;10875;50.444;30.540;2022-08-11T10:50:48;7.88;;;6.20;;
21428;SDS011;10875;50.444;30.540;2022-08-11T10:53:34;7.57;;;6.13;;
21428;SDS011;10875;50.444;30.540;2022-08-11T10:56:20;8.05;;;6.30;;
21428;SDS011;10875;50.444;30.540;2022-08-11T10:59:06;7.10;;;5.63;;
21428;SDS011;10875;50.444;30.540;2022-08-11T11:01:34;6.40;;;5.68;;
21428;SDS011;10875;50.444;30.540;2022-08-11T11:04:11;8.15;;;6.15;;
21428;SDS011;10875;50.444;30.540;2022-08-11T11:09:48;7.82;;;6.40;;
21428;SDS011;10875;50.444;30.540;2022-08-11T11:15:17;8.05;;;5.85;;
21428;SDS011;10875;50.444;30.540;2022-08-11T11:18:07;7.07;;;5.50;;
21428;SDS011;10875;50.444;30.540;2022-08-11T11:23:05;7.78;;;5.57;;
21428;SDS011;10875;50.444;30.540;2022-08-11T11:25:37;6.75;;;5.60;;
21428;SDS011;10875;50.444;30.540;2022-08-11T11:34:14;7.45;;;5.20;;
21428;SDS011;10875;50.444;30.540;2022-08-11T11:36:48;6.53;;;5.35;;
21428;SDS011;10875;50.444;30.540;2022-08-11T11:39:22;7.18;;;6.22;;
21428;SDS011;10875;50.444;30.540;2022-08-11T11:41:50;7.30;;;5.93;;
21428;SDS011;10875;50.444;30.540;2022-08-11T11:44:17;9.32;;;5.93;;
21428;SDS011;10875;50.444;30.540;2022-08-11T11:46:47;6.72;;;6.03;;
21428;SDS011;10875;50.444;30.540;2022-08-11T11:49:15;8.40;;;5.72;;
21428;SDS011;10875;50.444;30.540;2022-08-11T11:51:42;6.50;;;5.80;;
21428;SDS011;10875;50.444;30.540;2022-08-11T11:54:10;6.80;;;5.63;;
21428;SDS011;10875;50.444;30.540;2022-08-11T11:56:41;7.35;;;5.53;;
21428;SDS011;10875;50.444;30.540;2022-08-11T11:59:09;7.13;;;6.13;;
21428;SDS011;10875;50.444;30.540;2022-08-11T12:01:55;8.75;;;6.75;;
21428;SDS011;10875;50.444;30.540;2022-08-11T12:04:21;6.95;;;5.93;;
21428;SDS011;10875;50.444;30.540;2022-08-11T12:06:48;7.53;;;6.38;;
21428;SDS011;10875;50.444;30.540;2022-08-11T12:09:14;9.80;;;6.72;;
21428;SDS011;10875;50.444;30.540;2022-08-11T12:11:42;7.68;;;5.85;;
21428;SDS011;10875;50.444;30.540;2022-08-11T12:14:27;7.57;;;6.20;;
21428;SDS011;10875;50.444;30.540;2022-08-11T12:16:53;9.07;;;6.15;;
21428;SDS011;10875;50.444;30.540;2022-08-11T12:19:24;8.18;;;6.28;;
21428;SDS011;10875;50.444;30.540;2022-08-11T12:21:53;7.18;;;6.38;;
21428;SDS011;10875;50.444;30.540;2022-08-11T12:24:38;7.50;;;6.25;;
21428;SDS011;10875;50.444;30.540;2022-08-11T12:27:23;9.68;;;6.53;;
21428;SDS011;10875;50.444;30.540;2022-08-11T12:29:52;8.75;;;6.53;;
21428;SDS011;10875;50.444;30.540;2022-08-11T12:32:24;7.28;;;6.20;;
21428;SDS011;10875;50.444;30.540;2022-08-11T12:34:53;7.53;;;6.25;;
21428;SDS011;10875;50.444;30.540;2022-08-11T12:37:22;8.63;;;6.50;;
21428;SDS011;10875;50.444;30.540;2022-08-11T12:39:59;7.47;;;6.10;;
21428;SDS011;10875;50.444;30.540;2022-08-11T12:42:47;8.13;;;7.25;;
21428;SDS011;10875;50.444;30.540;2022-08-11T12:45:32;9.80;;;6.80;;
21428;SDS011;10875;50.444;30.540;2022-08-11T12:48:07;7.93;;;7.13;;
21428;SDS011;10875;50.444;30.540;2022-08-11T12:50:55;9.15;;;7.10;;
21428;SDS011;10875;50.444;30.540;2022-08-11T12:54:08;9.82;;;7.63;;
21428;SDS011;10875;50.444;30.540;2022-08-11T12:56:38;8.57;;;7.45;;
21428;SDS011;10875;50.444;30.540;2022-08-11T12:59:26;8.75;;;6.82;;
21428;SDS011;10875;50.444;30.540;2022-08-11T13:02:14;8.32;;;6.70;;
21428;SDS011;10875;50.444;30.540;2022-08-11T13:05:03;9.38;;;7.57;;
21428;SDS011;10875;50.444;30.540;2022-08-11T13:07:31;9.02;;;6.97;;
21428;SDS011;10875;50.444;30.540;2022-08-11T13:09:58;8.35;;;7.45;;
21428;SDS011;10875;50.444;30.540;2022-08-11T13:12:29;9.13;;;7.22;;
21428;SDS011;10875;50.444;30.540;2022-08-11T13:15:24;7.70;;;6.90;;
21428;SDS011;10875;50.444;30.540;2022-08-11T13:17:50;9.32;;;7.10;;
21428;SDS011;10875;50.444;30.540;2022-08-11T13:20:20;8.73;;;7.80;;
21428;SDS011;10875;50.444;30.540;2022-08-11T13:22:48;8.60;;;7.70;;
21428;SDS011;10875;50.444;30.540;2022-08-11T13:25:20;10.88;;;7.82;;
21428;SDS011;10875;50.444;30.540;2022-08-11T13:27:47;8.05;;;7.07;;
21428;SDS011;10875;50.444;30.540;2022-08-11T13:30:15;10.27;;;8.15;;
21428;SDS011;10875;50.444;30.540;2022-08-11T13:33:01;9.88;;;7.93;;
21428;SDS011;10875;50.444;30.540;2022-08-11T13:35:28;9.77;;;8.30;;
21428;SDS011;10875;50.444;30.540;2022-08-11T13:37:55;9.20;;;8.30;;
21428;SDS011;10875;50.444;30.540;2022-08-11T13:40:22;10.25;;;8.18;;
21428;SDS011;10875;50.444;30.540;2022-08-11T13:42:49;9.13;;;8.23;;
21428;SDS011;10875;50.444;30.540;2022-08-11T13:45:16;12.15;;;8.80;;
21428;SDS011;10875;50.444;30.540;2022-08-11T13:47:43;9.32;;;8.43;;
21428;SDS011;10875;50.444;30.540;2022-08-11T13:50:10;10.25;;;9.18;;
21428;SDS011;10875;50.444;30.540;2022-08-11T13:52:38;12.23;;;9.55;;
21428;SDS011;10875;50.444;30.540;2022-08-11T13:55:05;12.45;;;9.52;;
21428;SDS011;10875;50.444;30.540;2022-08-11T13:57:34;10.70;;;9.23;;
21428;SDS011;10875;50.444;30.540;2022-08-11T14:00:02;10.75;;;9.60;;
21428;SDS011;10875;50.444;30.540;2022-08-11T14:02:39;11.27;;;10.18;;
21428;SDS011;10875;50.444;30.540;2022-08-11T14:05:09;10.38;;;9.10;;
21428;SDS011;10875;50.444;30.540;2022-08-11T14:07:41;10.35;;;8.95;;
21428;SDS011;10875;50.444;30.540;2022-08-11T14:10:16;13.23;;;9.90;;
21428;SDS011;10875;50.444;30.540;2022-08-11T14:12:46;11.63;;;9.98;;
21428;SDS011;10875;50.444;30.540;2022-08-11T14:15:37;11.63;;;9.45;;
21428;SDS011;10875;50.444;30.540;2022-08-11T14:18:09;11.07;;;9.82;;
21428;SDS011;10875;50.444;30.540;2022-08-11T14:20:41;11.20;;;9.82;;
21428;SDS011;10875;50.444;30.540;2022-08-11T14:23:27;11.70;;;10.05;;
21428;SDS011;10875;50.444;30.540;2022-08-11T14:28:50;12.10;;;10.00;;
21428;SDS011;10875;50.444;30.540;2022-08-11T14:31:19;11.52;;;9.60;;
21428;SDS011;10875;50.444;30.540;2022-08-11T14:33:46;13.25;;;9.98;;
21428;SDS011;10875;50.444;30.540;2022-08-11T14:36:12;12.05;;;9.00;;
21428;SDS011;10875;50.444;30.540;2022-08-11T14:38:38;12.07;;;10.20;;
21428;SDS011;10875;50.444;30.540;2022-08-11T14:41:05;10.27;;;9.18;;
21428;SDS011;10875;50.444;30.540;2022-08-11T14:43:51;11.85;;;9.80;;
21428;SDS011;10875;50.444;30.540;2022-08-11T14:46:37;10.33;;;9.23;;
21428;SDS011;10875;50.444;30.540;2022-08-11T14:49:23;11.82;;;9.80;;
21428;SDS011;10875;50.444;30.540;2022-08-11T14:51:50;11.02;;;9.85;;
21428;SDS011;10875;50.444;30.540;2022-08-11T14:54:18;11.15;;;9.80;;
21428;SDS011;10875;50.444;30.540;2022-08-11T14:57:08;12.10;;;9.43;;
21428;SDS011;10875;50.444;30.540;2022-08-11T14:59:34;11.38;;;9.10;;
21428;SDS011;10875;50.444;30.540;2022-08-11T15:02:02;10.40;;;9.40;;
21428;SDS011;10875;50.444;30.540;2022-08-11T15:04:47;10.13;;;9.02;;
21428;SDS011;10875;50.444;30.540;2022-08-11T15:07:14;12.25;;;10.23;;
21428;SDS011;10875;50.444;30.540;2022-08-11T15:09:40;11.10;;;9.90;;
21428;SDS011;10875;50.444;30.540;2022-08-11T15:12:08;12.23;;;10.10;;
21428;SDS011;10875;50.444;30.540;2022-08-11T15:14:45;11.15;;;9.70;;
21428;SDS011;10875;50.444;30.540;2022-08-11T15:17:31;11.40;;;10.15;;
21428;SDS011;10875;50.444;30.540;2022-08-11T15:19:59;11.98;;;10.50;;
21428;SDS011;10875;50.444;30.540;2022-08-11T15:22:48;10.65;;;9.55;;
21428;SDS011;10875;50.444;30.540;2022-08-11T15:25:33;12.27;;;10.30;;
21428;SDS011;10875;50.444;30.540;2022-08-11T15:28:00;10.30;;;9.20;;
21428;SDS011;10875;50.444;30.540;2022-08-11T15:30:46;11.73;;;9.65;;
21428;SDS011;10875;50.444;30.540;2022-08-11T15:33:38;10.73;;;9.63;;
21428;SDS011;10875;50.444;30.540;2022-08-11T15:36:23;11.90;;;10.25;;
21428;SDS011;10875;50.444;30.540;2022-08-11T15:39:16;10.30;;;9.13;;
21428;SDS011;10875;50.444;30.540;2022-08-11T15:41:50;11.18;;;9.82;;
21428;SDS011;10875;50.444;30.540;2022-08-11T15:44:40;11.45;;;10.23;;
21428;SDS011;10875;50.444;30.540;2022-08-11T15:47:28;11.25;;;9.95;;
21428;SDS011;10875;50.444;30.540;2022-08-11T15:50:00;13.13;;;10.45;;
21428;SDS011;10875;50.444;30.540;2022-08-11T15:52:30;10.68;;;9.52;;
21428;SDS011;10875;50.444;30.540;2022-08-11T15:55:02;12.30;;;10.05;;
21428;SDS011;10875;50.444;30.540;2022-08-11T15:57:31;11.90;;;10.38;;
21428;SDS011;10875;50.444;30.540;2022-08-11T16:00:17;11.68;;;10.05;;
21428;SDS011;10875;50.444;30.540;2022-08-11T16:03:02;11.65;;;10.05;;
21428;SDS011;10875;50.444;30.540;2022-08-11T16:05:49;13.00;;;10.27;;
21428;SDS011;10875;50.444;30.540;2022-08-11T16:08:16;11.32;;;10.20;;
21428;SDS011;10875;50.444;30.540;2022-08-11T16:10:46;11.18;;;9.93;;
21428;SDS011;10875;50.444;30.540;2022-08-11T16:15:46;13.02;;;10.30;;
21428;SDS011;10875;50.444;30.540;2022-08-11T16:18:35;12.48;;;9.45;;
21428;SDS011;10875;50.444;30.540;2022-08-11T16:21:11;11.05;;;9.43;;
21428;SDS011;10875;50.444;30.540;2022-08-11T16:23:40;11.25;;;9.63;;
21428;SDS011;10875;50.444;30.540;2022-08-11T16:26:09;10.82;;;9.73;;
21428;SDS011;10875;50.444;30.540;2022-08-11T16:28:36;11.30;;;9.38;;
21428;SDS011;10875;50.444;30.540;2022-08-11T16:31:03;13.70;;;9.98;;
21428;SDS011;10875;50.444;30.540;2022-08-11T16:33:34;11.60;;;10.38;;
21428;SDS011;10875;50.444;30.540;2022-08-11T16:36:05;10.82;;;9.43;;
21428;SDS011;10875;50.444;30.540;2022-08-11T16:38:54;10.45;;;9.32;;
21428;SDS011;10875;50.444;30.540;2022-08-11T16:41:21;11.18;;;10.00;;
21428;SDS011;10875;50.444;30.540;2022-08-11T16:44:11;12.25;;;9.88;;
21428;SDS011;10875;50.444;30.540;2022-08-11T16:46:59;12.00;;;9.38;;
21428;SDS011;10875;50.444;30.540;2022-08-11T16:49:29;14.07;;;10.65;;
21428;SDS011;10875;50.444;30.540;2022-08-11T16:52:07;11.27;;;10.18;;
21428;SDS011;10875;50.444;30.540;2022-08-11T16:54:36;10.63;;;9.45;;
21428;SDS011;10875;50.444;30.540;2022-08-11T16:57:04;10.45;;;9.27;;
21428;SDS011;10875;50.444;30.540;2022-08-11T16:59:52;10.32;;;9.23;;
21428;SDS011;10875;50.444;30.540;2022-08-11T17:02:19;11.02;;;9.93;;
21428;SDS011;10875;50.444;30.540;2022-08-11T17:05:10;12.00;;;9.40;;
21428;SDS011;10875;50.444;30.540;2022-08-11T17:07:59;11.52;;;9.70;;
21428;SDS011;10875;50.444;30.540;2022-08-11T17:10:49;14.70;;;10.68;;
21428;SDS011;10875;50.444;30.540;2022-08-11T17:13:40;12.27;;;10.43;;
21428;SDS011;10875;50.444;30.540;2022-08-11T17:16:15;11.25;;;10.07;;
21428;SDS011;10875;50.444;30.540;2022-08-11T17:24:25;10.48;;;9.38;;
21428;SDS011;10875;50.444;30.540;2022-08-11T17:26:51;11.73;;;10.52;;
21428;SDS011;10875;50.444;30.540;2022-08-11T17:32:06;12.40;;;9.60;;
21428;SDS011;10875;50.444;30.540;2022-08-11T17:34:55;11.10;;;9.90;;
21428;SDS011;10875;50.444;30.540;2022-08-11T17:37:43;11.32;;;10.13;;
21428;SDS011;10875;50.444;30.540;2022-08-11T17:40:10;10.20;;;9.15;;
21428;SDS011;10875;50.444;30.540;2022-08-11T17:42:41;12.90;;;9.95;;
21428;SDS011;10875;50.444;30.540;2022-08-11T17:45:27;10.65;;;9.65;;
21428;SDS011;10875;50.444;30.540;2022-08-11T17:48:12;12.45;;;9.48;;
21428;SDS011;10875;50.444;30.540;2022-08-11T17:50:55;10.93;;;9.77;;
21428;SDS011;10875;50.444;30.540;2022-08-11T17:53:26;10.73;;;9.60;;
21428;SDS011;10875;50.444;30.540;2022-08-11T17:56:12;11.07;;;9.90;;
21428;SDS011;10875;50.444;30.540;2022-08-11T17:58:58;10.63;;;9.48;;
21428;SDS011;10875;50.444;30.540;2022-08-11T18:01:43;13.75;;;10.50;;
21428;SDS011;10875;50.444;30.540;2022-08-11T18:04:11;10.77;;;9.68;;
21428;SDS011;10875;50.444;30.540;2022-08-11T18:06:39;10.85;;;9.70;;
21428;SDS011;10875;50.444;30.540;2022-08-11T18:09:10;11.38;;;9.95;;
21428;SDS011;10875;50.444;30.540;2022-08-11T18:11:58;10.95;;;9.85;;
21428;SDS011;10875;50.444;30.540;2022-08-11T18:14:45;12.30;;;9.98;;
21428;SDS011;10875;50.444;30.540;2022-08-11T18:17:32;11.82;;;10.57;;
21428;SDS011;10875;50.444;30.540;2022-08-11T18:20:18;12.45;;;9.60;;
21428;SDS011;10875;50.444;30.540;2022-08-11T18:23:04;10.43;;;9.30;;
21428;SDS011;10875;50.444;30.540;2022-08-11T18:25:52;9.80;;;8.80;;
21428;SDS011;10875;50.444;30.540;2022-08-11T18:28:43;12.02;;;9.65;;
21428;SDS011;10875;50.444;30.540;2022-08-11T18:31:30;10.77;;;9.48;;
21428;SDS011;10875;50.444;30.540;2022-08-11T18:34:19;12.20;;;9.77;;
21428;SDS011;10875;50.444;30.540;2022-08-11T18:37:12;10.65;;;9.55;;
21428;SDS011;10875;50.444;30.540;2022-08-11T18:40:03;11.20;;;10.00;;
21428;SDS011;10875;50.444;30.540;2022-08-11T18:42:52;11.30;;;10.10;;
21428;SDS011;10875;50.444;30.540;2022-08-11T18:45:39;12.05;;;10.25;;
21428;SDS011;10875;50.444;30.540;2022-08-11T18:48:26;10.90;;;9.52;;
21428;SDS011;10875;50.444;30.540;2022-08-11T18:51:12;10.95;;;9.27;;
21428;SDS011;10875;50.444;30.540;2022-08-11T18:53:59;11.27;;;9.63;;
21428;SDS011;10875;50.444;30.540;2022-08-11T18:59:32;12.10;;;9.45;;
21428;SDS011;10875;50.444;30.540;2022-08-11T19:02:20;13.20;;;9.77;;
21428;SDS011;10875;50.444;30.540;2022-08-11T19:05:07;10.88;;;9.73;;
21428;SDS011;10875;50.444;30.540;2022-08-11T19:07:53;10.73;;;9.63;;
21428;SDS011;10875;50.444;30.540;2022-08-11T19:10:40;10.23;;;9.07;;
21428;SDS011;10875;50.444;30.540;2022-08-11T19:13:27;12.02;;;9.10;;
21428;SDS011;10875;50.444;30.540;2022-08-11T19:16:14;11.38;;;9.38;;
21428;SDS011;10875;50.444;30.540;2022-08-11T19:19:01;11.30;;;9.27;;
21428;SDS011;10875;50.444;30.540;2022-08-11T19:21:46;12.30;;;9.45;;
21428;SDS011;10875;50.444;30.540;2022-08-11T19:24:33;13.45;;;9.32;;
21428;SDS011;10875;50.444;30.540;2022-08-11T19:27:20;12.20;;;9.45;;
21428;SDS011;10875;50.444;30.540;2022-08-11T19:30:07;10.25;;;9.07;;
21428;SDS011;10875;50.444;30.540;2022-08-11T19:32:51;10.05;;;8.95;;